This is the latest recevied weather packets stored in our database for station/object OE-11099. If no packets are shown the sender has not sent any weather packets the latest 10 day(s).
| Time | Temp. | Humidity | Pressure | Rain* | Wind** | Luminosity | Snow |
|---|---|---|---|---|---|---|---|
| 1787723705 | 16.67° C | 78% | 1016.7 hPa | 0 mm | - | 40 W/m² | - |
| 1787722878 | 16.67° C | 78% | 1016.6 hPa | 0 mm | - | 27 W/m² | - |
| 1787722506 | 16.11° C | 82% | 1016.8 hPa | 0 mm | - | 20 W/m² | - |
| 1787721906 | 16.67° C | 81% | 1016.8 hPa | 0 mm | - | 13 W/m² | - |
| 1787721078 | 16.11° C | 80% | 1016.8 hPa | 0 mm | - | 7 W/m² | - |
| 1787720706 | 16.11° C | 82% | 1016.9 hPa | 0 mm | - | 7 W/m² | - |
| 1787720106 | 15.56° C | 86% | 1017 hPa | 0 mm | - | 0 W/m² | - |
| 1787719279 | 16.11° C | 82% | 1016.9 hPa | 0 mm | - | 0 W/m² | - |
| 1787718906 | 16.11° C | 82% | 1016.8 hPa | 0 mm | - | 0 W/m² | - |
| 1787718305 | 15.56° C | 84% | 1016.8 hPa | 0 mm | - | 0 W/m² | - |
| 1787717478 | 15.56° C | 86% | 1016.8 hPa | 0 mm | - | 0 W/m² | - |
| 1787717106 | 15.56° C | 84% | 1016.6 hPa | 0 mm | - | 0 W/m² | - |
| 1787716505 | 16.11° C | 84% | 1016.5 hPa | 0 mm | - | 0 W/m² | - |
| 1787715906 | 15.56° C | 84% | 1016.6 hPa | 0 mm | - | 0 W/m² | - |
| 1787715305 | 15.56° C | 86% | 1016.7 hPa | 0 mm | - | 0 W/m² | - |
| 1787714706 | 16.11° C | 81% | 1016.4 hPa | 0 mm | - | 0 W/m² | - |
| 1787713878 | 16.67° C | 80% | 1016.5 hPa | 0 mm | - | 0 W/m² | - |
| 1787713506 | 16.11° C | 81% | 1016.5 hPa | 0 mm | - | 0 W/m² | - |
| 1787712906 | 16.11° C | 81% | 1016.5 hPa | 0 mm | - | 0 W/m² | - |
| 1787712078 | 15.56° C | 85% | 1016.6 hPa | 0 mm | - | 0 W/m² | - |
| 1787711706 | 16.11° C | 81% | 1016.2 hPa | 0 mm | - | 0 W/m² | - |
| 1787711105 | 16.11° C | 82% | 1016.2 hPa | 0 mm | - | 0 W/m² | - |
| 1787710279 | 16.11° C | 82% | 1016.2 hPa | 0 mm | - | 0 W/m² | - |
| 1787709906 | 16.67° C | 81% | 1016.3 hPa | 0 mm | - | 0 W/m² | - |
| 1787709306 | 16.67° C | 80% | 1016.1 hPa | 0 mm | - | 0 W/m² | - |
* Rain latest hour (hover to see other rain measurements)
** Current wind speed in m/s (hover to see current wind gust speed)